createdAt,value
2019-06-07T00:04:52.210Z,64.67
2019-06-07T00:09:56.254Z,64.67
2019-06-07T00:15:00.261Z,65.20
2019-06-07T00:20:05.172Z,65.51
2019-06-07T00:25:13.374Z,66.26
2019-06-07T00:30:38.835Z,66.08
2019-06-07T00:35:22.612Z,66.08
2019-06-07T00:40:31.894Z,66.71
2019-06-07T00:45:32.638Z,66.68
2019-06-07T00:50:36.908Z,67.08
2019-06-07T00:55:40.931Z,66.95
2019-06-07T01:00:45.114Z,67.07
2019-06-07T01:05:49.137Z,67.07
2019-06-07T01:10:54.297Z,67.83
2019-06-07T01:15:58.664Z,68.33
2019-06-07T01:21:02.848Z,68.33
2019-06-07T01:26:07.044Z,68.37
2019-06-07T01:31:11.205Z,68.97
2019-06-07T01:36:17.792Z,68.97
2019-06-07T01:41:23.644Z,68.57
2019-06-07T01:46:26.929Z,67.60
2019-06-07T01:51:31.099Z,69.01
2019-06-07T01:56:35.189Z,69.25
2019-06-07T02:01:39.300Z,69.95
2019-06-07T02:06:43.481Z,68.78
2019-06-07T02:11:47.526Z,68.78
2019-06-07T02:16:51.704Z,68.69
2019-06-07T02:21:55.745Z,68.03
2019-06-07T02:26:59.847Z,69.13
2019-06-07T02:32:03.957Z,68.78
2019-06-07T02:37:07.980Z,69.58
2019-06-07T02:42:12.133Z,69.48
2019-06-07T02:47:16.222Z,69.66
2019-06-07T02:52:20.298Z,71.01
2019-06-07T02:57:25.709Z,70.60
2019-06-07T03:02:34.783Z,70.20
2019-06-07T03:07:40.241Z,70.54
2019-06-07T03:12:45.427Z,70.11
2019-06-07T03:18:01.999Z,70.11
2019-06-07T03:23:06.339Z,70.29
2019-06-07T03:28:10.418Z,70.29
2019-06-07T03:33:14.409Z,68.25
2019-06-07T03:38:18.406Z,68.45
2019-06-07T03:43:22.468Z,68.45
2019-06-07T03:48:28.472Z,69.19
2019-06-07T03:53:32.777Z,69.27
2019-06-07T03:58:49.228Z,69.27
2019-06-07T04:03:51.305Z,73.15
2019-06-07T04:08:49.548Z,75.52
2019-06-07T04:13:53.577Z,75.52
2019-06-07T04:18:57.698Z,75.51
2019-06-07T04:24:01.795Z,76.48
2019-06-07T04:29:32.393Z,76.79
2019-06-07T04:34:11.839Z,77.45
2019-06-07T04:39:16.034Z,77.42
2019-06-07T04:44:22.114Z,78.24
2019-06-07T04:49:26.993Z,77.27
2019-06-07T04:54:32.984Z,77.53
2019-06-07T05:04:44.045Z,78.81
2019-06-07T05:09:48.120Z,78.75
2019-06-07T05:14:52.161Z,79.29
2019-06-07T05:19:56.175Z,79.84
2019-06-07T05:25:00.213Z,80.31
2019-06-07T05:30:23.780Z,79.62
2019-06-07T05:35:11.785Z,79.26
2019-06-07T05:40:21.420Z,79.56
2019-06-07T05:45:36.860Z,80.44
2019-06-07T05:50:49.993Z,78.98
2019-06-07T05:55:47.511Z,78.94
2019-06-07T06:00:51.170Z,78.94
2019-06-07T06:05:55.817Z,78.46
2019-06-07T06:11:00.012Z,78.60
2019-06-07T06:16:04.214Z,77.28
2019-06-07T06:21:18.895Z,77.87
2019-06-07T06:26:14.252Z,78.18
2019-06-07T06:31:18.264Z,78.18
2019-06-07T06:36:22.667Z,71.83
2019-06-07T06:41:26.962Z,75.55
2019-06-07T06:46:38.624Z,75.55
2019-06-07T06:51:36.710Z,73.85
2019-06-07T06:56:43.944Z,73.85
2019-06-07T07:01:49.406Z,74.41
2019-06-07T07:06:53.864Z,73.78
2019-06-07T07:12:10.968Z,74.06
2019-06-07T07:17:04.887Z,74.67
2019-06-07T07:22:08.902Z,74.47
2019-06-07T07:27:12.980Z,74.50
2019-06-07T07:32:17.094Z,73.37
2019-06-07T07:37:21.120Z,74.33
2019-06-07T07:42:25.172Z,74.55
2019-06-07T07:47:29.432Z,74.85
2019-06-07T07:52:33.427Z,73.93
2019-06-07T07:57:37.501Z,73.93
2019-06-07T08:02:41.703Z,73.11
2019-06-07T08:07:49.886Z,71.62
2019-06-07T08:13:14.180Z,71.79
2019-06-07T08:18:01.135Z,70.67
2019-06-07T08:23:03.372Z,70.51
2019-06-07T08:28:07.523Z,70.07
2019-06-07T08:33:25.488Z,70.07
2019-06-07T08:38:29.819Z,69.59
2019-06-07T08:43:23.060Z,70.36
2019-06-07T08:48:29.989Z,67.70
2019-06-07T08:53:32.873Z,68.57
2019-06-07T08:58:37.042Z,69.06
2019-06-07T09:03:41.105Z,69.06
2019-06-07T09:08:45.192Z,68.77
2019-06-07T09:13:49.180Z,68.84
2019-06-07T09:18:57.005Z,68.84
2019-06-07T09:24:02.486Z,68.32
2019-06-07T09:29:08.384Z,67.82
2019-06-07T09:34:14.689Z,67.82
2019-06-07T09:39:16.777Z,68.72
2019-06-07T09:44:25.839Z,66.56
2019-06-07T09:49:32.875Z,66.56
2019-06-07T09:59:38.036Z,65.27
2019-06-07T10:04:42.125Z,65.73
2019-06-07T10:14:52.067Z,65.76
2019-06-07T10:19:56.294Z,66.37
2019-06-07T10:25:01.909Z,65.92
2019-06-07T10:30:08.243Z,65.92
2019-06-07T10:35:16.309Z,65.54
2019-06-07T10:40:19.135Z,65.00
2019-06-07T10:45:23.391Z,65.02
2019-06-07T10:50:27.552Z,65.00
2019-06-07T11:12:10.941Z,65.55
2019-06-07T11:17:15.797Z,65.55
2019-06-07T11:22:20.146Z,65.46
2019-06-07T11:27:24.226Z,65.35
2019-06-07T12:09:55.464Z,65.22
2019-06-07T12:14:47.878Z,65.24
2019-06-07T12:19:51.950Z,65.17
2019-06-07T12:24:56.123Z,65.11
2019-06-07T12:30:00.141Z,65.20
2019-06-07T12:35:04.665Z,65.20
2019-06-07T12:40:14.913Z,65.22
2019-06-07T12:45:41.267Z,65.27
2019-06-07T12:50:41.647Z,65.27
2019-06-07T12:55:30.907Z,65.69
2019-06-07T13:00:35.091Z,65.24
2019-06-07T13:05:39.180Z,65.19
2019-06-07T13:10:43.183Z,65.12
2019-06-07T13:15:47.203Z,65.47
2019-06-07T13:20:55.158Z,65.47
2019-06-07T13:25:56.945Z,65.36
2019-06-07T13:31:00.938Z,65.08
2019-06-07T13:36:05.083Z,65.53
2019-06-07T13:41:09.115Z,65.53
2019-06-07T13:46:13.278Z,65.54
2019-06-07T13:51:18.951Z,65.47
2019-06-07T13:56:23.980Z,65.60
2019-06-07T14:01:29.075Z,65.48
2019-06-07T14:06:33.254Z,65.77
2019-06-07T14:11:50.159Z,65.65
2019-06-07T14:16:43.253Z,65.90
2019-06-07T14:21:47.258Z,65.90
2019-06-07T14:27:06.543Z,65.42
2019-06-07T14:32:10.669Z,65.42
2019-06-07T14:37:14.908Z,65.42
2019-06-07T14:42:18.918Z,65.99
2019-06-07T14:47:23.800Z,65.84
2019-06-07T14:52:28.444Z,65.84
2019-06-07T14:57:33.715Z,66.08
2019-06-07T15:02:39.761Z,65.72
2019-06-07T15:07:43.980Z,65.85
2019-06-07T15:12:48.012Z,66.32
2019-06-07T15:17:53.153Z,66.38
2019-06-07T15:22:57.243Z,66.39
2019-06-07T15:28:01.310Z,66.20
2019-06-07T15:33:05.457Z,66.43
2019-06-07T15:38:09.524Z,66.27
2019-06-07T15:43:13.867Z,66.27
2019-06-07T15:48:17.888Z,65.99
2019-06-07T15:53:22.006Z,66.04
2019-06-07T15:58:25.998Z,66.01
2019-06-07T16:03:31.387Z,66.44
2019-06-07T16:08:36.325Z,66.67
2019-06-07T16:13:40.821Z,66.03
2019-06-07T16:18:44.995Z,66.44
2019-06-07T16:23:49.068Z,66.83
2019-06-07T16:28:53.210Z,66.83
2019-06-07T16:33:57.368Z,66.58
2019-06-07T16:39:01.390Z,66.62
2019-06-07T16:44:05.545Z,66.71
2019-06-07T16:49:09.581Z,66.36
2019-06-07T16:54:13.590Z,66.36
2019-06-07T16:59:17.686Z,65.86
2019-06-07T17:04:21.751Z,65.86
2019-06-07T17:09:25.848Z,65.89
2019-06-07T17:14:29.893Z,65.14
2019-06-07T17:19:33.984Z,65.01
2019-06-07T17:24:39.136Z,64.90
2019-06-07T17:29:43.664Z,65.03
2019-06-07T17:34:48.231Z,64.97
2019-06-07T17:39:53.098Z,64.97
2019-06-07T17:44:57.207Z,65.31
2019-06-07T17:50:01.241Z,64.95
2019-06-07T17:55:05.868Z,65.46
2019-06-07T18:00:28.174Z,65.75
2019-06-07T18:05:17.708Z,66.04
2019-06-07T18:10:36.583Z,66.04
2019-06-07T18:15:44.193Z,65.80
2019-06-07T18:20:49.225Z,65.85
2019-06-07T18:25:54.786Z,65.85
2019-06-07T18:30:59.047Z,65.64
2019-06-07T18:36:03.074Z,65.56
2019-06-07T18:41:07.111Z,66.14
2019-06-07T18:46:11.137Z,66.08
2019-06-07T18:51:15.302Z,65.95
2019-06-07T18:56:19.369Z,65.59
2019-06-07T19:01:23.401Z,65.86
2019-06-07T19:06:27.440Z,66.00
2019-06-07T19:11:31.560Z,66.00
2019-06-07T19:16:35.698Z,66.99
2019-06-07T19:21:39.713Z,66.99
2019-06-07T19:26:43.744Z,66.86
2019-06-07T19:31:47.745Z,67.11
2019-06-07T19:36:51.758Z,66.87
2019-06-07T19:41:55.959Z,67.47
2019-06-07T19:47:00.616Z,67.52
2019-06-07T19:52:04.916Z,67.29
2019-06-07T19:57:08.962Z,67.29
2019-06-07T20:02:13.154Z,67.42
2019-06-07T20:07:17.173Z,67.45
2019-06-07T20:12:21.293Z,67.75
2019-06-07T20:17:25.383Z,67.75
2019-06-07T20:22:29.401Z,67.61
2019-06-07T20:27:33.592Z,67.67
2019-06-07T20:32:37.752Z,68.07
2019-06-07T20:37:41.859Z,68.07
2019-06-07T20:42:45.893Z,67.87
2019-06-07T20:47:49.973Z,67.87
2019-06-07T20:52:53.989Z,67.92
2019-06-07T20:57:59.063Z,68.28
2019-06-07T21:03:03.365Z,68.15
2019-06-07T21:08:10.630Z,68.43
2019-06-07T21:13:13.260Z,68.57
2019-06-07T21:18:19.766Z,68.21
2019-06-07T21:23:23.141Z,68.22
2019-06-07T21:28:27.248Z,68.32
2019-06-07T21:33:31.256Z,68.47
2019-06-07T21:38:35.363Z,68.81
2019-06-07T21:43:39.375Z,68.57
2019-06-07T21:48:43.396Z,68.85
2019-06-07T21:53:47.409Z,68.85
2019-06-07T21:58:51.499Z,68.72
2019-06-07T22:03:55.716Z,68.67
2019-06-07T22:08:59.740Z,68.75
2019-06-07T22:14:04.185Z,69.02
2019-06-07T22:19:08.760Z,68.74
2019-06-07T22:24:13.138Z,68.74
2019-06-07T22:29:19.249Z,68.87
2019-06-07T22:34:23.120Z,68.87
2019-06-07T22:39:27.150Z,68.83
2019-06-07T22:44:31.209Z,68.83
2019-06-07T22:49:35.313Z,69.20
2019-06-07T22:54:39.381Z,68.58
2019-06-07T22:59:43.428Z,68.30
2019-06-07T23:04:47.546Z,68.24
2019-06-07T23:09:51.601Z,68.24
2019-06-07T23:14:55.672Z,68.23
2019-06-07T23:19:59.711Z,67.78
2019-06-07T23:25:03.880Z,67.53
2019-06-07T23:30:10.667Z,67.49
2019-06-07T23:35:17.313Z,68.14
2019-06-07T23:40:21.960Z,67.65
2019-06-07T23:45:26.079Z,68.02
2019-06-07T23:50:30.106Z,68.02
2019-06-07T23:55:34.131Z,67.87
